Laguna — WDF4470 — position and weather

sailwx.info

Track history (hours):
 
Tides and Currents Weather Stations Pressure Air Temp Water Temp Dewpoint Dewpoint Depression Visibility Wind Speed Wind Dir Waves Ship Positions

Laguna

Owner: GP RESOURCES INC., TERMINAL ISLAND, CA. More information available from US FCC via Universal Licensing System and Coast Guard Vessel Documentation Center.

Last reported at 2017-Nov-15 18:43 UTC. Time now 2017-Nov-23 05:46 UTC.
Position N 33°45' W 118°14'.

Length 15 m; draft 2.5 m.

MMSI: 367452280.

Date/timePositionNaut miles runAvg speedWind from/ knotsBaromVisibWave heightAir tempDewpointWater temp
2017-Nov-15 18:43N 33°45' W 118°14'0 0.0
2017-Nov-15 18:26N 33°45' W 118°14'0 0.0
2017-Nov-15 17:59N 33°45' W 118°14'0 0.0
2017-Nov-15 17:28N 33°45' W 118°14'0 0.0
2017-Nov-15 15:58N 33°45' W 118°14'2 0.5
2017-Nov-15 12:15N 33°44' W 118°16'  
2017-Nov-09 00:06N 33°15' W 119°26'0 0.1
2017-Nov-08 23:48N 33°15' W 119°26'0 0.0
2017-Nov-08 23:29N 33°15' W 119°26'0 0.0
2017-Nov-08 17:18N 33°15' W 119°26'0 0.0
2017-Nov-08 16:59N 33°15' W 119°26'0 0.1
2017-Nov-08 16:29N 33°15' W 119°26'1 1.9
2017-Nov-08 15:55N 33°15' W 119°25'1 2.2
2017-Nov-08 15:30N 33°15' W 119°24'31 6.0
2017-Nov-08 10:21N 33°07' W 118°48'9 6.5
2017-Nov-08 09:02N 33°05' W 118°38'1 6.3
2017-Nov-08 08:48N 33°05' W 118°37'5 6.4
2017-Nov-08 08:01N 33°03' W 118°31'0 7.0
2017-Nov-08 08:00N 33°03' W 118°31'3 6.4
2017-Nov-08 07:30N 33°01' W 118°28'9 6.1
2017-Nov-08 05:59N 32°57' W 118°18'3 5.8
2017-Nov-08 05:30N 32°56' W 118°15'3 6.0
2017-Nov-08 05:00N 32°55' W 118°11'3 6.1
2017-Nov-08 04:30N 32°54' W 118°08'3 6.3
2017-Nov-08 04:00N 32°53' W 118°04'3 6.0
2017-Nov-08 03:30N 32°53' W 118°01'3 5.7
2017-Nov-08 03:00N 32°52' W 117°58'3 5.8
2017-Nov-08 02:30N 32°50' W 117°54'3 6.0
2017-Nov-08 02:00N 32°49' W 117°51'3 6.2
2017-Nov-08 01:30N 32°48' W 117°48'3 6.2
2017-Nov-08 01:00N 32°47' W 117°44'3 5.7
2017-Nov-08 00:30N 32°46' W 117°41'3 5.6
2017-Nov-08 00:00N 32°45' W 117°38'3 5.9
2017-Nov-07 23:30N 32°44' W 117°35'3 5.9
2017-Nov-07 23:00N 32°43' W 117°31'3 6.0
2017-Nov-07 22:30N 32°42' W 117°28'3 5.7
2017-Nov-07 22:00N 32°41' W 117°25'3 5.5
2017-Nov-07 21:30N 32°40' W 117°22'3 5.5
2017-Nov-07 21:00N 32°38' W 117°19'3 5.4
2017-Nov-07 20:26N 32°37' W 117°16'7 0.8
2017-Nov-07 11:51N 32°42' W 117°21'3 7.1
2017-Nov-07 11:29N 32°45' W 117°23'3 6.8
2017-Nov-07 11:00N 32°47' W 117°25'3 6.7
2017-Nov-07 10:30N 32°50' W 117°27'3 6.8
2017-Nov-07 10:00N 32°53' W 117°30'3 6.7
2017-Nov-07 09:30N 32°55' W 117°33'3 6.7
2017-Nov-07 09:00N 32°58' W 117°35'3 6.8
2017-Nov-07 08:30N 33°00' W 117°38'3 6.6
2017-Nov-07 08:00N 33°03' W 117°40'3 6.6
2017-Nov-07 07:30N 33°05' W 117°43'3 6.6
2017-Nov-07 07:00N 33°08' W 117°45'3 6.6
2017-Nov-07 06:30N 33°11' W 117°47'12 6.8
2017-Nov-07 04:41N 33°21' W 117°55'2 7.0
2017-Nov-07 04:27N 33°23' W 117°56'  
Track history (hours):
 
Tides and Currents Weather Stations Pressure Air Temp Water Temp Dewpoint Dewpoint Depression Visibility Wind Speed Wind Dir Waves Ship Positions

Laguna

Owner: GP RESOURCES INC., TERMINAL ISLAND, CA. More information available from US FCC via Universal Licensing System and Coast Guard Vessel Documentation Center.

Last reported at 2017-Nov-15 18:43 UTC. Time now 2017-Nov-23 05:46 UTC.
Position N 33°45' W 118°14'.

Length 15 m; draft 2.5 m.

MMSI: 367452280.

Date/timePositionNaut miles runAvg speedWind from/ knotsBaromVisibWave heightAir tempDewpointWater temp
2017-Nov-15 18:43N 33°45' W 118°14'0 0.0
2017-Nov-15 18:26N 33°45' W 118°14'0 0.0
2017-Nov-15 17:59N 33°45' W 118°14'0 0.0
2017-Nov-15 17:28N 33°45' W 118°14'0 0.0
2017-Nov-15 15:58N 33°45' W 118°14'2 0.5
2017-Nov-15 12:15N 33°44' W 118°16'  
2017-Nov-09 00:06N 33°15' W 119°26'0 0.1
2017-Nov-08 23:48N 33°15' W 119°26'0 0.0
2017-Nov-08 23:29N 33°15' W 119°26'0 0.0
2017-Nov-08 17:18N 33°15' W 119°26'0 0.0
2017-Nov-08 16:59N 33°15' W 119°26'0 0.1
2017-Nov-08 16:29N 33°15' W 119°26'1 1.9
2017-Nov-08 15:55N 33°15' W 119°25'1 2.2
2017-Nov-08 15:30N 33°15' W 119°24'31 6.0
2017-Nov-08 10:21N 33°07' W 118°48'9 6.5
2017-Nov-08 09:02N 33°05' W 118°38'1 6.3
2017-Nov-08 08:48N 33°05' W 118°37'5 6.4
2017-Nov-08 08:01N 33°03' W 118°31'0 7.0
2017-Nov-08 08:00N 33°03' W 118°31'3 6.4
2017-Nov-08 07:30N 33°01' W 118°28'9 6.1
2017-Nov-08 05:59N 32°57' W 118°18'3 5.8
2017-Nov-08 05:30N 32°56' W 118°15'3 6.0
2017-Nov-08 05:00N 32°55' W 118°11'3 6.1
2017-Nov-08 04:30N 32°54' W 118°08'3 6.3
2017-Nov-08 04:00N 32°53' W 118°04'3 6.0
2017-Nov-08 03:30N 32°53' W 118°01'3 5.7
2017-Nov-08 03:00N 32°52' W 117°58'3 5.8
2017-Nov-08 02:30N 32°50' W 117°54'3 6.0
2017-Nov-08 02:00N 32°49' W 117°51'3 6.2
2017-Nov-08 01:30N 32°48' W 117°48'3 6.2
2017-Nov-08 01:00N 32°47' W 117°44'3 5.7
2017-Nov-08 00:30N 32°46' W 117°41'3 5.6
2017-Nov-08 00:00N 32°45' W 117°38'3 5.9
2017-Nov-07 23:30N 32°44' W 117°35'3 5.9
2017-Nov-07 23:00N 32°43' W 117°31'3 6.0
2017-Nov-07 22:30N 32°42' W 117°28'3 5.7
2017-Nov-07 22:00N 32°41' W 117°25'3 5.5
2017-Nov-07 21:30N 32°40' W 117°22'3 5.5
2017-Nov-07 21:00N 32°38' W 117°19'3 5.4
2017-Nov-07 20:26N 32°37' W 117°16'7 0.8
2017-Nov-07 11:51N 32°42' W 117°21'3 7.1
2017-Nov-07 11:29N 32°45' W 117°23'3 6.8
2017-Nov-07 11:00N 32°47' W 117°25'3 6.7
2017-Nov-07 10:30N 32°50' W 117°27'3 6.8
2017-Nov-07 10:00N 32°53' W 117°30'3 6.7
2017-Nov-07 09:30N 32°55' W 117°33'3 6.7
2017-Nov-07 09:00N 32°58' W 117°35'3 6.8
2017-Nov-07 08:30N 33°00' W 117°38'3 6.6
2017-Nov-07 08:00N 33°03' W 117°40'3 6.6
2017-Nov-07 07:30N 33°05' W 117°43'3 6.6
2017-Nov-07 07:00N 33°08' W 117°45'3 6.6
2017-Nov-07 06:30N 33°11' W 117°47'12 6.8
2017-Nov-07 04:41N 33°21' W 117°55'2 7.0
2017-Nov-07 04:27N 33°23' W 117°56'  

Dump ship's entire track history